Time;durP1;ratioP1;P1;durP2;ratioP2;P2;SDS_P1;SDS_P2;PMS_P1;PMS_P2;Temp;Humidity;BMP_temperature;BMP_pressure;BME280_temperature;BME280_humidity;BME280_pressure;Samples;Min_cycle;Max_cycle;Signal;HPM_P1;HPM_P2
2023/05/31 00:01:08;;;;;;;;;;;;;;;16.90;47.10;102089.09;4178894;28;20032;-72
2023/05/31 00:03:10;;;;;;;;;;;;;;;16.83;47.50;102090.84;4178069;28;19953;-71
2023/05/31 00:05:12;;;;;;;;;;;;;;;16.78;47.24;102087.00;4178773;28;20024;-71
2023/05/31 00:07:14;;;;;;;;;;;;;;;16.75;47.33;102096.38;4179270;28;20027;-71
2023/05/31 00:09:18;;;;;;;;;;;;;;;16.75;47.43;102099.09;4178854;28;20020;-72
2023/05/31 00:11:20;;;;;;;;;;;;;;;16.73;47.69;102093.00;4178714;28;20019;-72
2023/05/31 00:13:22;;;;;;;;;;;;;;;16.72;47.60;102094.03;4178784;28;20714;-71
2023/05/31 00:15:24;;;;;;;;;;;;;;;16.67;47.78;102091.84;4178489;28;20024;-72
2023/05/31 00:17:26;;;;;;;;;;;;;;;16.62;47.75;102085.28;4179127;28;20027;-72
2023/05/31 00:19:28;;;;;;;;;;;;;;;16.62;47.91;102094.28;4178377;28;20019;-71
2023/05/31 00:21:30;;;;;;;;;;;;;;;16.60;48.08;102090.91;4178233;28;19975;-72
2023/05/31 00:23:32;;;;;;;;;;;;;;;16.56;47.98;102093.13;4178836;28;20008;-71
2023/05/31 00:25:35;;;;;;;;;;;;;;;16.54;48.29;102091.66;4178825;28;20088;-72
2023/05/31 00:27:37;;;;;;;;;;;;;;;16.52;48.14;102093.69;4178164;28;21301;-72
2023/05/31 00:29:40;;;;;;;;;;;;;;;16.45;48.31;102090.00;4179005;28;20447;-71
2023/05/31 00:31:42;;;;;;;;;;;;;;;16.42;48.43;102093.09;4194820;28;20849;-72
2023/05/31 00:33:45;;;;;;;;;;;;;;;16.38;48.43;102088.00;4178411;28;20450;-71
2023/05/31 00:35:47;;;;;;;;;;;;;;;16.33;48.67;102089.59;4177312;28;20007;-71
2023/05/31 00:37:49;;;;;;;;;;;;;;;16.27;48.51;102090.31;4178009;28;20463;-72
2023/05/31 00:39:51;;;;;;;;;;;;;;;16.24;48.86;102090.66;4178336;28;20015;-71
2023/05/31 00:41:55;;;;;;;;;;;;;;;16.24;48.64;102093.41;4178687;28;20043;-71
2023/05/31 00:43:57;;;;;;;;;;;;;;;16.20;48.88;102087.47;4176608;28;20008;-72
2023/05/31 00:45:59;;;;;;;;;;;;;;;16.21;48.98;102089.19;4178816;28;20364;-71
2023/05/31 00:48:01;;;;;;;;;;;;;;;16.13;48.79;102091.97;4178337;28;20011;-72
2023/05/31 00:50:03;;;;;;;;;;;;;;;16.10;49.38;102089.59;4177814;28;20015;-72
2023/05/31 00:52:05;;;;;;;;;;;;;;;16.06;49.34;102088.25;4178943;28;20023;-71
2023/05/31 00:54:07;;;;;;;;;;;;;;;16.02;49.33;102091.34;4177127;28;20011;-71
2023/05/31 00:56:09;;;;;;;;;;;;;;;15.97;49.62;102095.63;4177566;28;20059;-71
2023/05/31 00:58:13;;;;;;;;;;;;;;;15.91;49.76;102088.16;4177542;28;20031;-72
2023/05/31 01:00:15;;;;;;;;;;;;;;;15.88;50.06;102085.81;4177034;28;20020;-71
2023/05/31 01:02:18;;;;;;;;;;;;;;;15.86;50.04;102091.44;4178204;28;20017;-71
2023/05/31 01:04:21;;;;;;;;;;;;;;;15.84;50.52;102093.50;4177843;28;20007;-71
2023/05/31 01:06:23;;;;;;;;;;;;;;;15.84;50.71;102097.06;4178479;28;20020;-71
2023/05/31 01:08:26;;;;;;;;;;;;;;;15.80;50.39;102095.72;4178536;28;20024;-71
2023/05/31 01:10:29;;;;;;;;;;;;;;;15.77;50.64;102090.63;4178507;28;20012;-71
2023/05/31 01:12:34;;;;;;;;;;;;;;;15.72;50.59;102093.03;4177135;28;20055;-72
2023/05/31 01:14:43;;;;;;;;;;;;;;;15.64;50.77;102093.03;4170512;28;20451;-71
2023/05/31 01:16:46;;;;;;;;;;;;;;;15.62;50.77;102090.50;4176379;28;20011;-71
2023/05/31 01:18:54;;;;;;;;;;;;;;;15.65;50.52;102092.88;4192885;28;20050;-71
2023/05/31 01:20:57;;;;;;;;;;;;;;;15.64;50.38;102095.78;4192613;28;20032;-71
2023/05/31 01:23:04;;;;;;;;;;;;;;;15.63;50.35;102096.81;4176541;28;20019;-72
2023/05/31 01:25:12;;;;;;;;;;;;;;;15.60;50.12;102103.44;4177510;28;20023;-71
2023/05/31 01:27:17;;;;;;;;;;;;;;;15.58;50.43;102096.47;4192792;28;20032;-71
2023/05/31 01:29:20;;;;;;;;;;;;;;;15.56;50.32;102093.94;4175852;28;20027;-71
2023/05/31 01:31:22;;;;;;;;;;;;;;;15.55;50.47;102096.81;4192708;28;20011;-70
2023/05/31 01:33:25;;;;;;;;;;;;;;;15.53;50.20;102093.44;4177399;28;20011;-71
2023/05/31 01:35:27;;;;;;;;;;;;;;;15.51;50.48;102090.91;4177311;28;20004;-71
2023/05/31 01:37:29;;;;;;;;;;;;;;;15.48;50.19;102094.81;4175939;28;20051;-71
2023/05/31 01:39:31;;;;;;;;;;;;;;;15.47;50.31;102090.41;4176921;28;20941;-71
2023/05/31 01:41:36;;;;;;;;;;;;;;;15.45;50.29;102092.47;4177608;28;20100;-71
2023/05/31 01:43:41;;;;;;;;;;;;;;;15.45;50.06;102089.75;4177204;28;20395;-71
2023/05/31 01:45:43;;;;;;;;;;;;;;;15.41;50.37;102096.56;4177487;28;20011;-71
2023/05/31 01:47:45;;;;;;;;;;;;;;;15.35;50.32;102104.59;4178064;28;20070;-71
2023/05/31 01:49:47;;;;;;;;;;;;;;;15.34;50.45;102092.81;4178121;28;20015;-71
2023/05/31 01:51:50;;;;;;;;;;;;;;;15.29;50.49;102101.53;4178509;28;20047;-71
2023/05/31 01:53:53;;;;;;;;;;;;;;;15.26;50.48;102107.31;4176451;28;20027;-71
2023/05/31 01:55:56;;;;;;;;;;;;;;;15.24;50.72;102098.47;4193617;28;20026;-71
2023/05/31 01:57:58;;;;;;;;;;;;;;;15.25;50.57;102096.59;4193341;28;20818;-71
2023/05/31 02:00:02;;;;;;;;;;;;;;;15.27;50.78;102097.28;4166507;28;20015;-71
2023/05/31 02:02:15;;;;;;;;;;;;;;;15.22;50.67;102103.25;4178313;28;20012;-71
2023/05/31 02:04:18;;;;;;;;;;;;;;;15.20;50.55;102099.00;4176894;28;20649;-71
2023/05/31 02:06:20;;;;;;;;;;;;;;;15.17;50.97;102096.63;4192450;28;20024;-71
2023/05/31 02:08:23;;;;;;;;;;;;;;;15.06;51.14;102093.28;4193941;28;19999;-71
2023/05/31 02:10:25;;;;;;;;;;;;;;;14.99;51.42;102094.97;4194516;28;20604;-71
2023/05/31 02:12:27;;;;;;;;;;;;;;;14.97;51.41;102099.75;4196139;28;20019;-71
2023/05/31 02:14:29;;;;;;;;;;;;;;;14.95;52.09;102099.94;4179991;28;20008;-71
2023/05/31 02:16:34;;;;;;;;;;;;;;;14.95;52.05;102101.78;4179547;28;20028;-71
2023/05/31 02:18:36;;;;;;;;;;;;;;;14.95;52.28;102099.06;4196247;28;20418;-71
2023/05/31 02:20:39;;;;;;;;;;;;;;;14.95;52.40;102090.91;4196092;28;20015;-71
2023/05/31 02:22:42;;;;;;;;;;;;;;;14.94;52.02;102094.66;4196228;28;20012;-71
2023/05/31 02:24:53;;;;;;;;;;;;;;;14.92;51.76;102093.97;4181214;28;20023;-72
2023/05/31 02:26:55;;;;;;;;;;;;;;;14.88;51.92;102096.19;4180553;28;20011;-72
2023/05/31 02:29:00;;;;;;;;;;;;;;;14.85;51.98;102099.25;4177144;28;20051;-72
2023/05/31 02:31:02;;;;;;;;;;;;;;;14.82;51.72;102105.03;4181107;28;20380;-72
2023/05/31 02:33:09;;;;;;;;;;;;;;;14.81;51.76;102103.34;4180893;28;20032;-73
2023/05/31 02:35:12;;;;;;;;;;;;;;;14.83;51.66;102103.16;4180015;28;20020;-73
2023/05/31 02:37:13;;;;;;;;;;;;;;;14.79;51.57;102102.66;4179837;28;20083;-72
2023/05/31 02:39:20;;;;;;;;;;;;;;;14.71;51.95;102098.06;4179785;28;20335;-72
2023/05/31 02:41:22;;;;;;;;;;;;;;;14.67;51.87;102104.88;4180951;28;20024;-72
2023/05/31 02:43:24;;;;;;;;;;;;;;;14.67;52.20;102101.31;4179542;28;20023;-72
2023/05/31 02:45:26;;;;;;;;;;;;;;;14.65;51.85;102104.19;4180639;28;20028;-72
2023/05/31 02:47:28;;;;;;;;;;;;;;;14.63;52.14;102102.69;4172035;28;20031;-72
2023/05/31 02:49:32;;;;;;;;;;;;;;;14.64;51.92;102101.63;4178877;28;20442;-72
2023/05/31 02:51:35;;;;;;;;;;;;;;;14.59;51.93;102099.41;4194709;28;20023;-72
2023/05/31 02:53:56;;;;;;;;;;;;;;;14.56;52.32;102097.03;4180054;28;20027;-73
2023/05/31 02:56:02;;;;;;;;;;;;;;;14.54;52.03;102099.06;4180145;28;20139;-72
2023/05/31 02:58:19;;;;;;;;;;;;;;;14.47;52.37;102098.91;4196116;28;20011;-72
2023/05/31 03:00:40;;;;;;;;;;;;;;;14.46;52.36;102099.06;4180193;28;20289;-72
2023/05/31 03:02:42;;;;;;;;;;;;;;;14.44;52.19;102092.97;4179691;28;20019;-72
2023/05/31 03:04:57;;;;;;;;;;;;;;;14.37;52.64;102093.66;4179114;28;20008;-72
2023/05/31 03:06:59;;;;;;;;;;;;;;;14.39;52.68;102088.03;4179839;28;20027;-72
2023/05/31 03:09:04;;;;;;;;;;;;;;;14.41;52.80;102086.84;4178538;28;20016;-72
2023/05/31 03:11:08;;;;;;;;;;;;;;;14.41;52.63;102086.84;4178875;28;20019;-72
2023/05/31 03:13:11;;;;;;;;;;;;;;;14.44;52.74;102088.38;4194509;28;20309;-71
2023/05/31 03:15:17;;;;;;;;;;;;;;;14.39;52.44;102085.31;4178486;28;20493;-71
2023/05/31 03:17:20;;;;;;;;;;;;;;;14.39;52.91;102088.03;4179706;28;20031;-71
2023/05/31 03:19:23;;;;;;;;;;;;;;;14.31;52.95;102088.88;4194780;28;20546;-71
2023/05/31 03:21:30;;;;;;;;;;;;;;;14.24;52.87;102096.84;4195364;28;20122;-71
2023/05/31 03:23:32;;;;;;;;;;;;;;;14.23;52.83;102097.88;4180034;28;20011;-71
2023/05/31 03:25:35;;;;;;;;;;;;;;;14.21;53.08;102102.59;4177836;28;20020;-72
2023/05/31 03:27:37;;;;;;;;;;;;;;;14.20;52.83;102106.38;4178480;28;20019;-72
2023/05/31 03:29:39;;;;;;;;;;;;;;;14.19;53.06;102098.38;4178909;28;20436;-72
2023/05/31 03:31:41;;;;;;;;;;;;;;;14.19;52.83;102095.66;4178914;28;20035;-72
2023/05/31 03:33:43;;;;;;;;;;;;;;;14.21;52.61;102096.34;4179491;28;20020;-72
2023/05/31 03:35:45;;;;;;;;;;;;;;;14.21;52.81;102093.63;4178029;28;20031;-72
2023/05/31 03:37:49;;;;;;;;;;;;;;;14.21;52.45;102090.91;4179413;28;20012;-72
2023/05/31 03:39:51;;;;;;;;;;;;;;;14.22;52.54;102085.28;4168203;28;20015;-71
2023/05/31 03:42:03;;;;;;;;;;;;;;;14.27;52.47;102083.94;4194135;28;20351;-72
2023/05/31 03:44:05;;;;;;;;;;;;;;;14.32;52.27;102087.84;4194454;28;20011;-72
2023/05/31 03:46:07;;;;;;;;;;;;;;;14.34;52.14;102087.69;4167959;28;20015;-72
2023/05/31 03:48:09;;;;;;;;;;;;;;;14.31;52.50;102086.16;4180007;28;20447;-72
2023/05/31 03:50:11;;;;;;;;;;;;;;;14.35;52.41;102084.78;4179465;28;20024;-72
2023/05/31 03:52:14;;;;;;;;;;;;;;;14.37;52.11;102093.66;4178233;28;20023;-72
2023/05/31 03:54:17;;;;;;;;;;;;;;;14.39;52.25;102094.31;4179149;28;20067;-72
2023/05/31 03:56:20;;;;;;;;;;;;;;;14.41;52.18;102089.56;4179138;28;20036;-72
2023/05/31 03:58:22;;;;;;;;;;;;;;;14.41;51.88;102089.56;4178324;28;20027;-72
2023/05/31 04:00:29;;;;;;;;;;;;;;;14.41;51.92;102095.00;4178814;28;20053;-72
2023/05/31 04:02:31;;;;;;;;;;;;;;;14.41;51.66;102095.00;4162206;28;20016;-71
2023/05/31 04:04:34;;;;;;;;;;;;;;;14.42;51.85;102091.25;4178155;28;20462;-71
2023/05/31 04:06:37;;;;;;;;;;;;;;;14.44;51.45;102090.25;4177291;28;20019;-71
2023/05/31 04:08:39;;;;;;;;;;;;;;;14.44;51.56;102082.09;4178141;28;20533;-72
2023/05/31 04:10:42;;;;;;;;;;;;;;;14.47;51.44;102092.63;4171223;28;20019;-71
2023/05/31 04:12:44;;;;;;;;;;;;;;;14.47;51.74;102088.03;4178827;28;20027;-71
2023/05/31 04:14:47;;;;;;;;;;;;;;;14.49;51.59;102087.88;4177194;28;20007;-72
2023/05/31 04:16:49;;;;;;;;;;;;;;;14.50;51.90;102090.41;4175516;28;20174;-71
2023/05/31 04:18:51;;;;;;;;;;;;;;;14.51;51.75;102092.09;4186064;28;20019;-72
2023/05/31 04:20:53;;;;;;;;;;;;;;;14.52;51.69;102092.97;4178101;28;20024;-71
2023/05/31 04:22:55;;;;;;;;;;;;;;;14.53;51.49;102092.78;4177769;28;20020;-71
2023/05/31 04:24:59;;;;;;;;;;;;;;;14.58;51.65;102092.28;4177244;28;20365;-71
2023/05/31 04:27:10;;;;;;;;;;;;;;;14.63;51.17;102092.66;4179207;28;20020;-71
2023/05/31 04:29:14;;;;;;;;;;;;;;;14.61;51.17;102083.81;4168957;28;20021;-70
2023/05/31 04:31:16;;;;;;;;;;;;;;;14.64;50.81;102085.31;4177066;28;20007;-73
2023/05/31 04:33:20;;;;;;;;;;;;;;;14.64;50.50;102082.59;4177056;28;20028;-71
2023/05/31 04:35:22;;;;;;;;;;;;;;;14.65;50.68;102087.88;4177189;28;20024;-72
2023/05/31 04:37:28;;;;;;;;;;;;;;;14.69;50.64;102085.69;4192678;28;19964;-72
2023/05/31 04:39:31;;;;;;;;;;;;;;;14.73;50.40;102087.88;4194221;28;20028;-72
2023/05/31 04:41:34;;;;;;;;;;;;;;;14.75;50.63;102085.84;4176442;28;20522;-73
2023/05/31 04:43:39;;;;;;;;;;;;;;;14.75;50.23;102091.28;4175603;28;21436;-72
2023/05/31 04:45:42;;;;;;;;;;;;;;;14.77;50.43;102091.94;4170040;28;20294;-72
2023/05/31 04:47:46;;;;;;;;;;;;;;;14.82;50.59;102094.16;4179134;28;20024;-72
2023/05/31 04:49:48;;;;;;;;;;;;;;;14.84;50.28;102093.97;4171566;28;20054;-72
2023/05/31 04:51:51;;;;;;;;;;;;;;;14.86;50.47;102095.53;4161796;28;20029;-72
2023/05/31 04:53:53;;;;;;;;;;;;;;;14.87;50.31;102097.19;4157465;28;20024;-72
2023/05/31 04:55:57;;;;;;;;;;;;;;;14.89;50.15;102102.47;4177162;28;20024;-72
2023/05/31 04:57:59;;;;;;;;;;;;;;;14.95;50.40;102108.09;4178180;28;20023;-73
2023/05/31 05:00:08;;;;;;;;;;;;;;;14.99;50.08;102097.69;4164745;28;20374;-72
2023/05/31 05:02:11;;;;;;;;;;;;;;;15.04;50.18;102094.47;4166247;28;20020;-72
2023/05/31 05:04:14;;;;;;;;;;;;;;;15.09;49.82;102094.78;4180837;28;20399;-72
2023/05/31 05:06:16;;;;;;;;;;;;;;;15.11;49.84;102090.03;4178240;28;20023;-73
2023/05/31 05:08:18;;;;;;;;;;;;;;;15.11;49.89;102093.59;4177470;28;20700;-71
2023/05/31 05:10:21;;;;;;;;;;;;;;;15.13;49.71;102094.25;4154578;28;20032;-73
2023/05/31 05:12:23;;;;;;;;;;;;;;;15.13;49.78;102093.41;4177772;28;20032;-73
2023/05/31 05:14:26;;;;;;;;;;;;;;;15.16;49.97;102092.19;4176561;28;20039;-72
2023/05/31 05:16:29;;;;;;;;;;;;;;;15.22;49.70;102086.94;4160443;28;20023;-73
2023/05/31 05:18:32;;;;;;;;;;;;;;;15.28;49.79;102094.41;4177261;28;20397;-72
2023/05/31 05:20:35;;;;;;;;;;;;;;;15.32;49.87;102094.88;4192913;28;20003;-72
2023/05/31 05:22:39;;;;;;;;;;;;;;;15.36;49.36;102100.81;4161193;28;20076;-71
2023/05/31 05:24:41;;;;;;;;;;;;;;;15.37;49.30;102097.91;4168140;28;20023;-73
2023/05/31 05:26:45;;;;;;;;;;;;;;;15.41;49.85;102093.84;4160128;28;20020;-73
2023/05/31 05:28:47;;;;;;;;;;;;;;;15.44;49.46;102082.59;4160846;28;20011;-73
2023/05/31 05:30:49;;;;;;;;;;;;;;;15.46;49.38;102087.88;4176331;28;20020;-72
2023/05/31 05:32:53;;;;;;;;;;;;;;;15.49;49.54;102082.91;4174678;28;20023;-71
2023/05/31 05:34:55;;;;;;;;;;;;;;;15.55;49.49;102083.22;4175393;28;20015;-72
2023/05/31 05:37:00;;;;;;;;;;;;;;;15.58;49.19;102078.28;4192318;28;20027;-72
2023/05/31 05:39:05;;;;;;;;;;;;;;;15.62;49.20;102084.22;4183864;28;20032;-72
2023/05/31 05:41:12;;;;;;;;;;;;;;;15.67;49.24;102074.50;4177207;28;20462;-72
2023/05/31 05:43:15;;;;;;;;;;;;;;;15.76;48.95;102082.63;4192465;28;20027;-72
2023/05/31 05:45:31;;;;;;;;;;;;;;;15.82;49.05;102077.31;4179689;28;20043;-73
2023/05/31 05:47:34;;;;;;;;;;;;;;;15.83;49.12;102070.00;4180753;28;20011;-73
2023/05/31 05:49:37;;;;;;;;;;;;;;;15.91;49.18;102071.81;4179912;28;20047;-73
2023/05/31 05:51:42;;;;;;;;;;;;;;;15.96;48.77;102077.59;4177849;28;20019;-72
2023/05/31 05:53:45;;;;;;;;;;;;;;;16.03;48.65;102070.38;4195103;28;20027;-73
2023/05/31 05:55:50;;;;;;;;;;;;;;;16.14;48.49;102069.94;4163065;28;20052;-73
2023/05/31 05:57:56;;;;;;;;;;;;;;;16.20;48.42;102076.56;4179226;28;20131;-73
2023/05/31 06:00:17;;;;;;;;;;;;;;;16.24;48.31;102077.91;4179906;28;20024;-73
2023/05/31 06:02:22;;;;;;;;;;;;;;;16.27;48.07;102079.41;4179928;28;20580;-72
2023/05/31 06:04:25;;;;;;;;;;;;;;;16.30;48.15;102079.91;4194777;28;20011;-73
2023/05/31 06:06:29;;;;;;;;;;;;;;;16.32;48.27;102080.56;4196063;28;20011;-72
2023/05/31 06:08:31;;;;;;;;;;;;;;;16.34;48.04;102078.50;4179868;28;20028;-73
2023/05/31 06:10:33;;;;;;;;;;;;;;;16.38;48.21;102074.38;4179815;28;20004;-73
2023/05/31 06:12:35;;;;;;;;;;;;;;;16.42;48.37;102076.75;4179813;28;20469;-73
2023/05/31 06:14:38;;;;;;;;;;;;;;;16.47;48.15;102077.88;4187404;28;20359;-72
2023/05/31 06:16:41;;;;;;;;;;;;;;;16.53;47.70;102073.56;4179731;28;20023;-73
2023/05/31 06:18:43;;;;;;;;;;;;;;;16.55;47.75;102076.94;4170128;28;20020;-73
2023/05/31 06:20:45;;;;;;;;;;;;;;;16.59;47.91;102070.13;4168242;28;20071;-73
2023/05/31 06:22:49;;;;;;;;;;;;;;;16.66;47.46;102081.13;4184396;28;20023;-71
2023/05/31 06:24:53;;;;;;;;;;;;;;;16.69;47.35;102078.91;4155936;28;20029;-73
2023/05/31 06:26:55;;;;;;;;;;;;;;;16.71;47.37;102081.44;4152990;28;20029;-72
2023/05/31 06:29:03;;;;;;;;;;;;;;;16.73;47.87;102074.75;4163024;28;20095;-73
2023/05/31 06:31:26;;;;;;;;;;;;;;;16.78;47.62;102081.53;4133594;28;21112;-73
2023/05/31 06:33:28;;;;;;;;;;;;;;;16.84;47.83;102078.06;4130370;28;20364;-73
2023/05/31 06:35:30;;;;;;;;;;;;;;;16.90;47.75;102082.81;4156147;28;19933;-73
2023/05/31 06:37:32;;;;;;;;;;;;;;;16.95;47.53;102076.78;4173085;28;20730;-73
2023/05/31 06:39:36;;;;;;;;;;;;;;;17.00;47.31;102074.34;4157138;28;20438;-72
2023/05/31 06:41:38;;;;;;;;;;;;;;;17.04;47.45;102076.50;4158233;28;19937;-73
2023/05/31 06:44:00;;;;;;;;;;;;;;;17.08;47.03;102080.56;4156160;28;20592;-73
2023/05/31 06:46:28;;;;;;;;;;;;;;;17.12;46.77;102075.56;4160341;28;19983;-73
2023/05/31 06:48:49;;;;;;;;;;;;;;;17.15;46.89;102072.47;4177668;28;20016;-71
2023/05/31 06:51:26;;;;;;;;;;;;;;;17.17;47.08;102075.84;4196652;28;20027;-71
2023/05/31 06:53:47;;;;;;;;;;;;;;;17.22;47.03;102073.41;4185075;28;20068;-72
2023/05/31 06:55:56;;;;;;;;;;;;;;;17.25;46.90;102075.75;4167388;28;20015;-73
2023/05/31 06:57:59;;;;;;;;;;;;;;;17.30;46.88;102075.19;4176047;28;20108;-72
2023/05/31 07:00:03;;;;;;;;;;;;;;;17.33;46.47;102066.63;4178586;28;20992;-72
2023/05/31 07:02:06;;;;;;;;;;;;;;;17.36;46.12;102068.13;4186750;28;20017;-71
2023/05/31 07:04:08;;;;;;;;;;;;;;;17.39;46.23;102065.84;4187100;28;20019;-72
2023/05/31 07:06:10;;;;;;;;;;;;;;;17.40;46.14;102066.72;4180487;28;20040;-72
2023/05/31 07:08:15;;;;;;;;;;;;;;;17.39;46.20;102065.84;4177645;28;20015;-72
2023/05/31 07:10:37;;;;;;;;;;;;;;;17.42;46.33;102060.00;4178974;28;20008;-73
2023/05/31 07:12:41;;;;;;;;;;;;;;;17.44;46.56;102062.56;4179050;28;20015;-73
2023/05/31 07:14:43;;;;;;;;;;;;;;;17.47;46.48;102057.56;4171150;28;20016;-72
2023/05/31 07:16:45;;;;;;;;;;;;;;;17.51;46.49;102055.31;4178001;28;20015;-72
2023/05/31 07:18:47;;;;;;;;;;;;;;;17.54;46.50;102054.06;4178906;28;20016;-72
2023/05/31 07:20:50;;;;;;;;;;;;;;;17.57;46.43;102046.34;4179643;28;20019;-73
2023/05/31 07:22:53;;;;;;;;;;;;;;;17.61;46.06;102050.38;4179429;28;20016;-73
2023/05/31 07:24:55;;;;;;;;;;;;;;;17.66;46.19;102047.06;4178707;28;20016;-72
2023/05/31 07:26:57;;;;;;;;;;;;;;;17.68;45.98;102044.13;4178725;28;20032;-72
2023/05/31 07:29:01;;;;;;;;;;;;;;;17.71;45.74;102041.03;4179004;28;20036;-73
2023/05/31 07:31:03;;;;;;;;;;;;;;;17.73;45.82;102033.50;4178881;28;20422;-72
2023/05/31 07:33:05;;;;;;;;;;;;;;;17.74;45.84;102036.03;4179645;28;20015;-73
2023/05/31 07:35:07;;;;;;;;;;;;;;;17.78;46.22;102031.03;4179221;28;20027;-73
2023/05/31 07:37:09;;;;;;;;;;;;;;;17.81;45.90;102034.22;4178044;28;20027;-73
2023/05/31 07:39:12;;;;;;;;;;;;;;;17.82;45.62;102024.97;4177982;28;20020;-73
2023/05/31 07:41:16;;;;;;;;;;;;;;;17.87;45.56;102029.00;4178502;28;20028;-72
2023/05/31 07:43:20;;;;;;;;;;;;;;;17.88;45.17;102026.09;4178280;28;20012;-73
2023/05/31 07:45:23;;;;;;;;;;;;;;;17.91;45.53;102028.44;4179223;28;20059;-72
2023/05/31 07:47:26;;;;;;;;;;;;;;;17.93;45.48;102029.13;4193899;28;19963;-73
2023/05/31 07:49:28;;;;;;;;;;;;;;;17.97;45.21;102032.31;4177947;28;20012;-73
2023/05/31 07:51:30;;;;;;;;;;;;;;;17.99;44.54;102022.00;4179669;28;20016;-72
2023/05/31 07:53:32;;;;;;;;;;;;;;;18.00;44.24;102021.81;4178976;28;20059;-73
2023/05/31 07:55:35;;;;;;;;;;;;;;;18.02;44.04;102029.81;4178850;28;20505;-72
2023/05/31 07:57:37;;;;;;;;;;;;;;;18.05;43.69;102023.97;4179514;28;20012;-72
2023/05/31 07:59:39;;;;;;;;;;;;;;;18.05;44.19;102026.69;4178195;28;20012;-72
2023/05/31 08:01:42;;;;;;;;;;;;;;;18.09;44.38;102027.19;4178654;28;20019;-72
2023/05/31 08:03:44;;;;;;;;;;;;;;;18.11;43.69;102025.09;4177013;28;20023;-73
2023/05/31 08:05:48;;;;;;;;;;;;;;;18.12;43.52;102029.50;4161400;28;20322;-72
2023/05/31 08:07:51;;;;;;;;;;;;;;;18.14;43.91;102027.44;4163381;28;20024;-72
2023/05/31 08:09:53;;;;;;;;;;;;;;;18.16;43.72;102033.53;4163121;28;20011;-73
2023/05/31 08:11:55;;;;;;;;;;;;;;;18.18;43.97;102029.56;4162931;28;20027;-73
2023/05/31 08:13:57;;;;;;;;;;;;;;;18.21;43.76;102028.31;4162800;28;20028;-72
2023/05/31 08:15:59;;;;;;;;;;;;;;;18.24;43.83;102027.09;4161914;28;20036;-73
2023/05/31 08:18:05;;;;;;;;;;;;;;;18.25;43.93;102032.34;4160887;28;20361;-73
2023/05/31 08:20:10;;;;;;;;;;;;;;;18.26;43.77;102017.66;4158687;28;20003;-73
2023/05/31 08:22:15;;;;;;;;;;;;;;;18.33;43.62;102023.16;4160839;28;19964;-73
2023/05/31 08:24:16;;;;;;;;;;;;;;;18.37;43.59;102028.06;4165185;28;20522;-73
2023/05/31 08:26:18;;;;;;;;;;;;;;;18.38;43.41;102020.69;4177189;28;20007;-73
2023/05/31 08:28:20;;;;;;;;;;;;;;;18.39;43.07;102014.19;4178084;28;20027;-73
2023/05/31 08:30:22;;;;;;;;;;;;;;;18.41;43.48;102013.97;4178446;28;20027;-73
2023/05/31 08:32:24;;;;;;;;;;;;;;;18.43;43.49;102023.69;4177101;28;20521;-73
2023/05/31 08:34:28;;;;;;;;;;;;;;;18.45;43.29;102018.00;4177674;28;20055;-72
2023/05/31 08:36:30;;;;;;;;;;;;;;;18.46;42.94;102022.44;4179046;28;20031;-73
2023/05/31 08:38:34;;;;;;;;;;;;;;;18.48;43.01;102020.34;4178371;28;20015;-74
2023/05/31 08:40:37;;;;;;;;;;;;;;;18.45;43.17;102004.31;4178429;28;20019;-73
2023/05/31 08:42:40;;;;;;;;;;;;;;;18.52;43.28;102027.09;4178329;28;20467;-74
2023/05/31 08:44:42;;;;;;;;;;;;;;;18.55;42.38;102013.03;4178773;28;20498;-74
2023/05/31 08:46:44;;;;;;;;;;;;;;;18.58;41.64;102018.09;4177784;28;20019;-72
2023/05/31 08:48:51;;;;;;;;;;;;;;;18.61;41.78;102014.97;4177118;28;20020;-73
2023/05/31 08:50:54;;;;;;;;;;;;;;;18.64;42.55;102020.06;4178125;28;20015;-72
2023/05/31 08:52:56;;;;;;;;;;;;;;;18.64;42.94;102011.84;4179186;28;20034;-72
2023/05/31 08:54:59;;;;;;;;;;;;;;;18.67;42.26;102022.38;4177428;28;20024;-71
2023/05/31 08:57:01;;;;;;;;;;;;;;;18.69;42.35;102006.59;4178317;28;20023;-73
2023/05/31 08:59:04;;;;;;;;;;;;;;;18.71;42.20;102001.81;4178342;28;20024;-72
2023/05/31 09:01:06;;;;;;;;;;;;;;;18.73;42.46;102007.06;4178928;28;20455;-72
2023/05/31 09:03:09;;;;;;;;;;;;;;;18.76;42.40;102009.41;4177808;28;20033;-73
2023/05/31 09:05:11;;;;;;;;;;;;;;;18.80;42.50;102007.09;4177086;28;20023;-73
2023/05/31 09:07:15;;;;;;;;;;;;;;;18.81;42.51;102000.56;4178854;28;20116;-73
2023/05/31 09:09:18;;;;;;;;;;;;;;;18.84;42.59;101997.44;4176930;28;19952;-73
2023/05/31 09:11:20;;;;;;;;;;;;;;;18.84;42.54;101994.69;4178119;28;20008;-73
2023/05/31 09:13:22;;;;;;;;;;;;;;;18.86;42.55;101996.22;4178500;28;20032;-72
2023/05/31 09:15:25;;;;;;;;;;;;;;;18.89;42.62;101984.88;4178569;28;20008;-73
2023/05/31 09:17:27;;;;;;;;;;;;;;;18.90;42.43;101988.44;4178257;28;20481;-72
2023/05/31 09:19:29;;;;;;;;;;;;;;;18.92;42.50;101989.09;4177563;28;20023;-73
2023/05/31 09:21:35;;;;;;;;;;;;;;;18.93;42.49;101988.03;4173570;28;19971;-72
2023/05/31 09:23:39;;;;;;;;;;;;;;;18.96;42.48;101975.84;4193978;28;20362;-72
2023/05/31 09:25:44;;;;;;;;;;;;;;;18.97;42.16;101981.13;4176879;28;20462;-71
2023/05/31 09:27:46;;;;;;;;;;;;;;;19.01;42.50;101976.06;4177236;28;20032;-72
2023/05/31 09:29:51;;;;;;;;;;;;;;;19.01;42.14;101971.47;4177886;28;20047;-72
2023/05/31 09:32:07;;;;;;;;;;;;;;;19.04;42.32;101982.00;4176690;28;20031;-72
2023/05/31 09:34:20;;;;;;;;;;;;;;;19.06;41.95;101976.34;4176431;28;20031;-72
2023/05/31 09:36:24;;;;;;;;;;;;;;;19.08;42.11;101971.50;4177592;28;20016;-72
2023/05/31 09:38:31;;;;;;;;;;;;;;;19.12;42.17;101966.44;4178193;28;20732;-73
2023/05/31 09:40:35;;;;;;;;;;;;;;;19.13;41.86;101962.66;4177798;28;20039;-73
2023/05/31 09:42:37;;;;;;;;;;;;;;;19.17;41.85;101961.19;4174527;28;20028;-72
2023/05/31 09:44:39;;;;;;;;;;;;;;;19.18;41.86;101957.41;4177409;28;20008;-71
2023/05/31 09:46:41;;;;;;;;;;;;;;;19.21;41.63;101952.34;4169362;28;20024;-71
2023/05/31 09:48:43;;;;;;;;;;;;;;;19.22;41.85;101948.56;4177834;28;20031;-72
2023/05/31 09:50:46;;;;;;;;;;;;;;;19.23;41.70;101949.41;4178350;28;20023;-72
2023/05/31 09:52:49;;;;;;;;;;;;;;;19.24;41.69;101945.63;4176847;28;20020;-72
2023/05/31 09:54:51;;;;;;;;;;;;;;;19.26;41.57;101949.00;4176772;28;20008;-72
2023/05/31 09:56:55;;;;;;;;;;;;;;;19.25;41.55;101950.91;4176527;28;20023;-72
2023/05/31 09:58:58;;;;;;;;;;;;;;;19.28;41.45;101949.66;4176801;28;20020;-72
2023/05/31 10:01:00;;;;;;;;;;;;;;;19.27;41.32;101948.78;4174591;28;20020;-72
2023/05/31 10:03:02;;;;;;;;;;;;;;;19.29;41.38;101951.34;4174567;28;20220;-72
2023/05/31 10:05:05;;;;;;;;;;;;;;;19.32;41.53;101952.81;4173598;28;20024;-72
2023/05/31 10:07:07;;;;;;;;;;;;;;;19.33;41.58;101949.88;4176920;28;20222;-72
2023/05/31 10:09:10;;;;;;;;;;;;;;;19.35;41.61;101947.78;4177344;28;20017;-72
2023/05/31 10:11:13;;;;;;;;;;;;;;;19.35;41.21;101950.50;4178425;28;20020;-72
2023/05/31 10:13:16;;;;;;;;;;;;;;;19.38;41.14;101947.34;4177784;28;20028;-72
2023/05/31 10:15:19;;;;;;;;;;;;;;;19.40;41.25;101938.94;4177923;28;20363;-72
2023/05/31 10:17:21;;;;;;;;;;;;;;;19.42;40.96;101934.13;4177784;28;20036;-71
2023/05/31 10:19:24;;;;;;;;;;;;;;;19.44;41.03;101938.31;4177024;28;20007;-73
2023/05/31 10:21:26;;;;;;;;;;;;;;;19.45;41.01;101931.78;4178070;28;20073;-72
2023/05/31 10:23:28;;;;;;;;;;;;;;;19.45;40.88;101934.53;4177500;28;20023;-73
2023/05/31 10:25:31;;;;;;;;;;;;;;;19.47;40.97;101927.97;4177179;28;20011;-73
2023/05/31 10:27:35;;;;;;;;;;;;;;;19.48;40.90;101924.19;4163645;28;20051;-73
2023/05/31 10:29:40;;;;;;;;;;;;;;;19.51;40.56;101921.06;4178064;28;20055;-72
2023/05/31 10:31:45;;;;;;;;;;;;;;;19.52;40.64;101925.50;4179483;28;20023;-73
2023/05/31 10:33:48;;;;;;;;;;;;;;;19.56;40.47;101926.75;4179166;28;20012;-73
2023/05/31 10:35:51;;;;;;;;;;;;;;;19.58;40.32;101930.13;4181309;28;20008;-73